Cambridge, Minnesota
Current Conditions -  °F | °C
As of 5:15 AM on Tuesday 21 Oct 2014 (Local Time) from KCBG Reporting Station
Clear Clear  
Wind Chill:   Ceiling: Unl
Heat Index:   Visibility: 10mi
Dew Point: -3°   Wind: 0mph
Humidity: 80%   Direction: NA
Pressure: 30.15"   Gusts: NA
Location:  45.57°N, 93.22°W
Report Text: KCBG 211015Z AUTO 00000KT 10SM CLR 00/M03 A3015 RMK AO2
Loading
Personal Weather Stations






























Interactive Weather Map
Tropical Storm Tracking
New forecast layout! Learn more

10-Day Weather Forecast

Advertisements
Track Severe Weather on mobile